Airfield :
LOGIN :

Register | Disclaimer

   EN    FR    IT 

 










Legend :    VFR   Marginal VFR   IFR   Intensive IFR   Very Intensive IFR
Visi :
Ceiling :
>= 8 km
>= 3000ft
5 to 8 km
1000 to 3000 ft
1500m to 5 km
500 to 1000 ft
800 to 1500m
200 to 500 ft
< 800m
< 200 ft
Symbols :   Thunderstorms  Fog  Heavy snow  Heavy precipitations  Wind > 20 kt
SIGMETs :     Misc.  Thunderstorms  Icing  Turbulence  Mountain Waves  Volcanic Ashes







- Airport Elevation : 195 ft
- Download approach charts


LFMY - Salon de Provence

CURRENT METAR :
  • 221230Z AUTO 17007KT 120V190 9999 FEW029 OVC041 17/10 Q1018 NOSIG

EXPIRED METARs :
  • 221200Z AUTO 14007KT 110V170 9999 SCT029 OVC035 17/10 Q1018 NOSIG
  • 221130Z AUTO 13005KT 080V170 9999 BKN033 17/10 Q1018 NOSIG
  • 221100Z AUTO 13007KT 100V180 9999 SCT029 17/09 Q1018 NOSIG
  • 221030Z AUTO 08007KT CAVOK 16/07 Q1019 BECMG 15010KT
  • 221000Z AUTO 05007KT CAVOK 14/06 Q1019 NOSIG

TAF TAF LFMY
Valid from the 22 at 09:00 until the 23 at 09:00 UTC


220800Z 2209/2309 07005KT CAVOK
FM221200 15010KT 9999 BKN025
No reported NOTAMs for that airfield.



MET'MAP, your aeronautical weather chart ! - Copyright ORBIFLY December 2007 - Disclaimer

ORBIFLY MET'MAP TEAM :

Programming & Development : Alexandra Zaïnal
Concept & Development : Baudouin d'Aumeries
Co-Development & Prog : Marc-Olivier Méhu
Technical & hardware support : Manuel Goepfert

Contact : metmap@orbifly.com




SOURCES & CREDITS :

   NOAA